TimeCDT,TemperatureF,Dew PointF,Humidity,Sea Level PressureIn,VisibilityMPH,Wind Direction,Wind SpeedMPH,Gust SpeedMPH,PrecipitationIn,Events,Conditions,WindDirDegrees,DateUTC
12:15 AM,69.8,69.8,100,29.97,3.0,Calm,Calm,-,N/A,,Clear,0,2013-06-17 05:15:00
12:35 AM,69.8,69.8,100,29.96,3.0,Calm,Calm,-,N/A,,Clear,0,2013-06-17 05:35:00
12:55 AM,68.0,68.0,100,29.94,2.5,ENE,3.5,-,N/A,,Clear,60,2013-06-17 05:55:00
1:15 AM,68.0,68.0,100,29.96,2.5,Calm,Calm,-,N/A,,Clear,0,2013-06-17 06:15:00
1:35 AM,68.0,68.0,100,29.96,2.5,Calm,Calm,-,N/A,,Clear,0,2013-06-17 06:35:00
1:55 AM,68.0,68.0,100,29.94,2.5,Calm,Calm,-,N/A,,Clear,0,2013-06-17 06:55:00
2:15 AM,68.0,68.0,100,29.93,2.0,NE,3.5,-,N/A,,Clear,40,2013-06-17 07:15:00
2:35 AM,68.0,68.0,100,29.93,5.0,Calm,Calm,-,N/A,,Clear,0,2013-06-17 07:35:00
2:55 AM,68.0,68.0,100,29.92,5.0,Calm,Calm,-,N/A,,Clear,0,2013-06-17 07:55:00
3:15 AM,68.0,68.0,100,29.92,5.0,Calm,Calm,-,N/A,,Clear,0,2013-06-17 08:15:00
3:35 AM,68.0,68.0,100,29.92,5.0,North,3.5,-,N/A,,Clear,350,2013-06-17 08:35:00
3:55 AM,68.0,68.0,100,29.93,5.0,Calm,Calm,-,N/A,,Mostly Cloudy,0,2013-06-17 08:55:00
4:15 AM,68.0,68.0,100,29.92,5.0,Calm,Calm,-,N/A,,Overcast,0,2013-06-17 09:15:00
4:35 AM,68.0,68.0,100,29.92,7.0,Calm,Calm,-,N/A,,Overcast,0,2013-06-17 09:35:00
4:55 AM,68.0,68.0,100,29.92,5.0,Calm,Calm,-,N/A,,Overcast,0,2013-06-17 09:55:00
5:15 AM,69.8,69.8,100,29.92,7.0,Calm,Calm,-,N/A,,Overcast,0,2013-06-17 10:15:00
5:35 AM,69.8,69.8,100,29.92,5.0,NNW,3.5,-,N/A,,Scattered Clouds,340,2013-06-17 10:35:00
5:55 AM,68.0,68.0,100,29.93,5.0,North,3.5,-,N/A,,Mostly Cloudy,360,2013-06-17 10:55:00
6:15 AM,69.8,69.8,100,29.94,5.0,NNW,4.6,-,N/A,,Overcast,340,2013-06-17 11:15:00
6:35 AM,69.8,69.8,100,29.94,5.0,NNW,5.8,-,N/A,,Overcast,340,2013-06-17 11:35:00
6:55 AM,69.8,69.8,100,29.93,7.0,NW,4.6,-,N/A,,Mostly Cloudy,320,2013-06-17 11:55:00
7:15 AM,69.8,69.8,100,29.93,7.0,Calm,Calm,-,N/A,,Scattered Clouds,0,2013-06-17 12:15:00
7:35 AM,69.8,69.8,100,29.94,7.0,Calm,Calm,-,N/A,,Clear,0,2013-06-17 12:35:00
7:55 AM,69.8,69.8,100,29.93,7.0,North,8.1,-,N/A,,Clear,350,2013-06-17 12:55:00
8:15 AM,69.8,69.8,100,29.95,10.0,Calm,Calm,-,N/A,,Scattered Clouds,0,2013-06-17 13:15:00
8:35 AM,71.6,71.6,100,29.95,10.0,NNW,4.6,-,N/A,,Mostly Cloudy,340,2013-06-17 13:35:00
8:55 AM,71.6,71.6,100,29.95,10.0,Calm,Calm,-,N/A,,Scattered Clouds,0,2013-06-17 13:55:00
9:15 AM,71.6,71.6,100,29.97,10.0,South,3.5,-,N/A,,Scattered Clouds,190,2013-06-17 14:15:00
9:35 AM,71.6,71.6,100,29.97,10.0,SW,4.6,-,N/A,,Overcast,220,2013-06-17 14:35:00
9:55 AM,71.6,71.6,100,29.97,10.0,Calm,Calm,-,N/A,,Overcast,0,2013-06-17 14:55:00
10:15 AM,71.6,71.6,100,29.98,10.0,SE,3.5,-,N/A,,Overcast,140,2013-06-17 15:15:00
10:35 AM,71.6,71.6,100,29.97,10.0,Calm,Calm,-,N/A,,Unknown,0,2013-06-17 15:35:00
10:55 AM,73.4,71.6,94,29.98,10.0,Calm,Calm,-,N/A,,Overcast,0,2013-06-17 15:55:00
11:15 AM,73.4,71.6,94,29.99,10.0,ESE,3.5,-,N/A,,Overcast,120,2013-06-17 16:15:00
11:35 AM,73.4,71.6,94,29.99,10.0,ESE,3.5,-,N/A,,Overcast,120,2013-06-17 16:35:00
11:55 AM,73.4,71.6,94,29.99,10.0,Calm,Calm,-,N/A,Thunderstorm,Overcast,0,2013-06-17 16:55:00
12:15 PM,75.2,71.6,89,30.00,10.0,West,3.5,-,N/A,Thunderstorm,Overcast,280,2013-06-17 17:15:00
12:35 PM,73.4,71.6,94,30.00,10.0,WNW,6.9,-,N/A,,Overcast,290,2013-06-17 17:35:00
12:55 PM,73.4,69.8,88,29.99,10.0,West,8.1,-,N/A,Thunderstorm,Scattered Clouds,280,2013-06-17 17:55:00
1:15 PM,71.6,71.6,100,29.99,10.0,WNW,4.6,-,N/A,Thunderstorm,Thunderstorm,290,2013-06-17 18:15:00
1:35 PM,73.4,71.6,94,29.99,10.0,West,4.6,-,N/A,Thunderstorm,Clear,280,2013-06-17 18:35:00
1:55 PM,75.2,71.6,89,29.98,10.0,WSW,4.6,-,N/A,,Mostly Cloudy,250,2013-06-17 18:55:00
2:15 PM,75.2,71.6,89,29.98,10.0,SW,5.8,-,N/A,Thunderstorm,Thunderstorm,230,2013-06-17 19:15:00
2:35 PM,77.0,73.4,89,29.97,10.0,West,4.6,-,N/A,Thunderstorm,Overcast,280,2013-06-17 19:35:00
2:55 PM,78.8,71.6,78,29.97,10.0,Calm,Calm,-,N/A,,Mostly Cloudy,0,2013-06-17 19:55:00
3:15 PM,78.8,71.6,78,29.97,10.0,Calm,Calm,-,N/A,Thunderstorm,Mostly Cloudy,0,2013-06-17 20:15:00
3:35 PM,78.8,71.6,78,29.96,10.0,Calm,Calm,-,N/A,Thunderstorm,Scattered Clouds,0,2013-06-17 20:35:00
3:55 PM,78.8,71.6,78,29.97,10.0,SE,3.5,-,N/A,Rain,Light Rain,130,2013-06-17 20:55:00
4:15 PM,71.6,68.0,88,29.98,10.0,SSE,8.1,-,N/A,Rain-Thunderstorm,Light Thunderstorms and Rain,160,2013-06-17 21:15:00
4:35 PM,68.0,64.4,88,29.99,7.0,SSE,9.2,-,N/A,Rain-Thunderstorm,Heavy Thunderstorms and Rain,150,2013-06-17 21:35:00
4:55 PM,68.0,68.0,100,29.97,10.0,SW,4.6,-,N/A,Thunderstorm,Scattered Clouds,230,2013-06-17 21:55:00
5:15 PM,71.6,69.8,94,29.96,10.0,Calm,Calm,-,N/A,,Clear,0,2013-06-17 22:15:00
5:35 PM,73.4,69.8,88,29.95,10.0,Calm,Calm,-,N/A,,Clear,0,2013-06-17 22:35:00
5:55 PM,77.0,69.8,78,29.94,10.0,Calm,Calm,-,N/A,,Clear,0,2013-06-17 22:55:00
6:15 PM,77.0,71.6,83,29.93,10.0,Calm,Calm,-,N/A,,Unknown,0,2013-06-17 23:15:00
6:35 PM,78.8,69.8,74,29.93,10.0,Calm,Calm,-,N/A,,Clear,0,2013-06-17 23:35:00
6:55 PM,78.8,69.8,74,29.93,10.0,Calm,Calm,-,N/A,,Clear,0,2013-06-17 23:55:00
7:15 PM,78.8,69.8,74,29.93,10.0,NNW,4.6,-,N/A,,Clear,340,2013-06-18 00:15:00
7:35 PM,78.8,69.8,74,29.93,10.0,Calm,Calm,-,N/A,,Clear,0,2013-06-18 00:35:00
7:55 PM,78.8,69.8,74,29.93,10.0,Calm,Calm,-,N/A,,Unknown,0,2013-06-18 00:55:00
8:15 PM,78.8,71.6,78,29.93,10.0,Calm,Calm,-,N/A,,Clear,0,2013-06-18 01:15:00
8:35 PM,77.0,71.6,83,29.93,10.0,Calm,Calm,-,N/A,,Clear,0,2013-06-18 01:35:00
8:55 PM,73.4,71.6,94,29.94,10.0,Calm,Calm,-,N/A,,Clear,0,2013-06-18 01:55:00
9:15 PM,73.4,73.4,100,29.94,10.0,Calm,Calm,-,N/A,,Clear,0,2013-06-18 02:15:00
9:35 PM,71.6,71.6,100,29.95,10.0,Calm,Calm,-,N/A,,Clear,0,2013-06-18 02:35:00
9:55 PM,71.6,71.6,100,29.96,7.0,Calm,Calm,-,N/A,,Clear,0,2013-06-18 02:55:00
10:15 PM,69.8,69.8,100,29.96,7.0,Calm,Calm,-,N/A,,Unknown,0,2013-06-18 03:15:00
10:35 PM,69.8,69.8,100,29.97,2.5,Calm,Calm,-,N/A,,Clear,0,2013-06-18 03:35:00
10:55 PM,69.8,69.8,100,29.97,0.2,Calm,Calm,-,N/A,Fog,Fog,0,2013-06-18 03:55:00
11:15 PM,68.0,68.0,100,29.97,0.5,Calm,Calm,-,N/A,Fog,Fog,0,2013-06-18 04:15:00
11:35 PM,68.0,68.0,100,29.97,0.2,Calm,Calm,-,N/A,Fog,Fog,0,2013-06-18 04:35:00
11:55 PM,66.2,66.2,100,29.98,0.2,Calm,Calm,-,N/A,Fog,Fog,0,2013-06-18 04:55:00